Time;durP1;ratioP1;P1;durP2;ratioP2;P2;SDS_P1;SDS_P2;PMS_P1;PMS_P2;Temp;Humidity;BMP_temperature;BMP_pressure;BME280_temperature;BME280_humidity;BME280_pressure;Samples;Min_cycle;Max_cycle;Signal;HPM_P1;HPM_P2
2024/01/16 00:00:47;;;;;;;11.50;1.73;;;2.80;99.90;;;;;;4996884;28;20416;-80
2024/01/16 00:03:13;;;;;;;13.88;1.63;;;2.70;99.90;;;;;;4997223;28;20018;-79
2024/01/16 00:05:39;;;;;;;10.02;1.83;;;2.70;99.90;;;;;;4995907;28;20045;-79
2024/01/16 00:08:05;;;;;;;11.90;1.55;;;2.60;99.90;;;;;;4979560;28;20430;-80
2024/01/16 00:10:30;;;;;;;7.32;1.10;;;2.60;99.90;;;;;;4997126;28;20369;-80
2024/01/16 00:12:56;;;;;;;10.43;1.30;;;2.60;99.90;;;;;;4996927;28;20030;-79
2024/01/16 00:15:22;;;;;;;5.32;1.00;;;2.60;99.90;;;;;;4996881;28;20027;-80
2024/01/16 00:17:48;;;;;;;10.90;1.20;;;2.50;99.90;;;;;;4979343;28;20034;-79
2024/01/16 00:20:14;;;;;;;8.55;1.30;;;2.50;99.90;;;;;;4996805;28;20054;-80
2024/01/16 00:22:39;;;;;;;8.57;1.50;;;2.60;99.90;;;;;;4979093;28;20058;-80
2024/01/16 00:25:05;;;;;;;7.05;0.90;;;2.60;99.90;;;;;;4995602;28;20053;-79
2024/01/16 00:27:31;;;;;;;8.93;1.05;;;2.60;99.90;;;;;;4995492;28;20500;-80
2024/01/16 00:29:56;;;;;;;10.80;1.42;;;2.60;99.90;;;;;;4996639;28;20222;-80
2024/01/16 00:32:22;;;;;;;7.07;0.88;;;2.60;99.90;;;;;;4995700;28;20022;-80
2024/01/16 00:34:48;;;;;;;9.18;0.63;;;2.60;99.90;;;;;;4996603;28;20033;-80
2024/01/16 00:37:13;;;;;;;8.77;1.15;;;2.60;99.90;;;;;;4996170;28;20030;-79
2024/01/16 00:39:39;;;;;;;8.75;1.23;;;2.60;99.90;;;;;;4996197;28;20027;-79
2024/01/16 00:42:05;;;;;;;11.38;0.80;;;2.60;99.90;;;;;;4994928;28;20030;-79
2024/01/16 00:44:31;;;;;;;10.45;1.23;;;2.60;99.90;;;;;;4995147;28;20073;-79
2024/01/16 00:46:57;;;;;;;13.95;2.10;;;2.60;99.90;;;;;;4996423;28;20025;-79
2024/01/16 00:49:23;;;;;;;8.75;1.33;;;2.60;99.90;;;;;;4996287;28;20046;-78
2024/01/16 00:51:48;;;;;;;8.27;1.30;;;2.60;99.90;;;;;;4995248;28;20042;-79
2024/01/16 00:54:14;;;;;;;8.98;1.30;;;2.60;99.90;;;;;;4995894;28;20053;-79
2024/01/16 00:56:42;;;;;;;6.88;0.88;;;2.60;99.90;;;;;;4994927;28;20026;-79
2024/01/16 00:59:08;;;;;;;10.68;1.05;;;2.60;99.90;;;;;;4996024;28;20113;-79
2024/01/16 01:01:36;;;;;;;10.48;1.38;;;2.60;99.90;;;;;;4996016;28;20542;-80
2024/01/16 01:04:02;;;;;;;10.43;1.48;;;2.60;99.90;;;;;;4996002;28;20439;-79
2024/01/16 01:06:28;;;;;;;11.25;1.00;;;2.60;99.90;;;;;;4994787;28;20073;-79
2024/01/16 01:08:53;;;;;;;8.52;0.70;;;2.60;99.90;;;;;;4994757;28;20080;-79
2024/01/16 01:11:19;;;;;;;6.13;1.65;;;2.50;99.90;;;;;;4995894;28;20105;-78
2024/01/16 01:13:45;;;;;;;4.32;1.30;;;2.50;99.90;;;;;;4995674;28;20105;-79
2024/01/16 01:16:10;;;;;;;13.02;1.27;;;2.50;99.90;;;;;;4995749;28;20476;-79
2024/01/16 01:18:36;;;;;;;8.02;1.20;;;2.50;99.90;;;;;;4978095;28;20376;-78
2024/01/16 01:21:02;;;;;;;7.72;1.23;;;2.50;99.90;;;;;;4995719;28;20125;-79
2024/01/16 01:23:28;;;;;;;9.70;0.93;;;2.50;99.90;;;;;;4995128;28;20441;-79
2024/01/16 01:25:53;;;;;;;7.93;1.00;;;2.50;99.90;;;;;;4994155;28;20033;-79
2024/01/16 01:28:19;;;;;;;12.75;0.95;;;2.50;99.90;;;;;;4995860;28;20038;-80
2024/01/16 01:30:44;;;;;;;9.88;1.23;;;2.50;99.90;;;;;;4994075;28;20026;-80
2024/01/16 01:33:11;;;;;;;8.20;1.08;;;2.40;99.90;;;;;;4994391;28;20029;-80
2024/01/16 01:35:37;;;;;;;8.95;1.00;;;2.40;99.90;;;;;;4994436;28;20121;-80
2024/01/16 01:38:03;;;;;;;9.18;1.00;;;2.40;99.90;;;;;;4993678;28;20467;-80
2024/01/16 01:40:28;;;;;;;8.73;1.15;;;2.40;99.90;;;;;;4994329;28;20033;-80
2024/01/16 01:42:54;;;;;;;8.10;1.40;;;2.40;99.90;;;;;;4994372;28;20346;-80
2024/01/16 01:45:21;;;;;;;10.27;1.33;;;2.40;99.90;;;;;;4994267;28;20077;-80
2024/01/16 01:47:47;;;;;;;3.90;0.80;;;2.30;99.90;;;;;;4993888;28;20556;-80
2024/01/16 01:50:14;;;;;;;7.55;1.00;;;2.40;99.90;;;;;;4993928;28;20033;-80
2024/01/16 01:52:40;;;;;;;9.85;1.10;;;2.40;99.90;;;;;;4994404;28;20035;-80
2024/01/16 01:55:10;;;;;;;8.55;1.58;;;2.30;99.90;;;;;;4994610;28;20026;-80
2024/01/16 01:57:36;;;;;;;12.35;1.83;;;2.20;99.90;;;;;;4994900;28;20113;-80
2024/01/16 02:00:03;;;;;;;4.28;0.80;;;2.30;99.90;;;;;;4994854;28;20110;-80
2024/01/16 02:02:29;;;;;;;4.70;0.85;;;2.20;99.90;;;;;;4994830;28;20033;-80
2024/01/16 02:04:55;;;;;;;7.72;0.85;;;2.30;99.90;;;;;;4993496;28;20058;-80
2024/01/16 02:07:21;;;;;;;8.73;0.85;;;2.30;99.90;;;;;;4993937;28;20030;-80
2024/01/16 02:09:47;;;;;;;7.82;1.05;;;2.30;99.90;;;;;;4994731;28;20022;-80
2024/01/16 02:12:13;;;;;;;4.30;0.90;;;2.30;99.90;;;;;;4995306;28;20371;-80
2024/01/16 02:14:38;;;;;;;7.95;1.30;;;2.30;99.90;;;;;;4993236;28;20038;-80
2024/01/16 02:17:04;;;;;;;13.80;1.55;;;2.30;99.90;;;;;;4993708;28;20508;-80
2024/01/16 02:19:30;;;;;;;9.95;1.02;;;2.30;99.90;;;;;;4994466;28;20038;-77
2024/01/16 02:22:01;;;;;;;14.38;1.60;;;2.30;99.90;;;;;;4994367;28;20029;-77
2024/01/16 02:24:26;;;;;;;7.90;1.67;;;2.30;99.90;;;;;;4994778;28;20062;-77
2024/01/16 02:26:53;;;;;;;7.78;1.25;;;2.30;99.90;;;;;;4994357;28;20050;-77
2024/01/16 02:29:19;;;;;;;9.70;1.70;;;2.40;99.90;;;;;;4993919;28;20041;-77
2024/01/16 02:31:45;;;;;;;9.40;1.52;;;2.40;99.90;;;;;;4994231;28;20030;-77
2024/01/16 02:34:10;;;;;;;7.95;2.42;;;2.40;99.90;;;;;;4993329;28;20077;-77
2024/01/16 02:36:36;;;;;;;7.38;1.40;;;2.50;99.90;;;;;;4995247;28;20057;-77
2024/01/16 02:39:02;;;;;;;10.20;1.73;;;2.50;99.90;;;;;;4994092;28;20427;-78
2024/01/16 02:41:28;;;;;;;10.48;2.03;;;2.40;99.90;;;;;;4995097;28;20050;-77
2024/01/16 02:43:54;;;;;;;9.48;2.00;;;2.40;99.90;;;;;;4992944;28;20189;-77
2024/01/16 02:46:20;;;;;;;7.35;2.05;;;2.40;99.90;;;;;;4978828;28;20026;-77
2024/01/16 02:48:46;;;;;;;8.65;2.42;;;2.40;99.90;;;;;;5001289;28;20475;-77
2024/01/16 02:51:12;;;;;;;9.63;2.40;;;2.30;99.90;;;;;;4980160;28;20527;-77
2024/01/16 02:53:38;;;;;;;8.40;2.05;;;2.30;99.90;;;;;;4994292;28;20037;-77
2024/01/16 02:56:04;;;;;;;8.50;2.45;;;2.30;99.90;;;;;;4994319;28;20022;-77
2024/01/16 02:58:30;;;;;;;7.45;2.45;;;2.40;99.90;;;;;;4993048;28;20070;-77
2024/01/16 03:00:57;;;;;;;12.75;2.83;;;2.40;99.90;;;;;;4993968;28;20361;-77
2024/01/16 03:03:23;;;;;;;8.68;2.78;;;2.40;99.90;;;;;;4993698;28;20461;-77
2024/01/16 03:05:49;;;;;;;8.88;2.92;;;2.40;99.90;;;;;;4992840;28;20050;-77
2024/01/16 03:08:15;;;;;;;12.60;2.80;;;2.40;99.90;;;;;;4992900;28;20068;-77
2024/01/16 03:10:41;;;;;;;8.50;3.00;;;2.40;99.90;;;;;;4993670;28;20081;-77
2024/01/16 03:13:07;;;;;;;10.23;2.85;;;2.40;99.90;;;;;;4992327;28;20072;-77
2024/01/16 03:15:32;;;;;;;8.25;2.70;;;2.40;99.90;;;;;;4977710;28;20030;-77
2024/01/16 03:17:59;;;;;;;7.93;2.55;;;2.40;99.90;;;;;;4996138;28;20069;-77
2024/01/16 03:20:25;;;;;;;8.93;2.45;;;2.30;99.90;;;;;;4996408;28;20022;-77
2024/01/16 03:22:51;;;;;;;12.85;2.75;;;2.30;99.90;;;;;;4997372;28;20479;-77
2024/01/16 03:25:17;;;;;;;9.02;2.78;;;2.30;99.90;;;;;;4995741;28;20112;-77
2024/01/16 03:27:43;;;;;;;8.57;2.97;;;2.40;99.90;;;;;;4996081;28;20054;-77
2024/01/16 03:30:10;;;;;;;8.63;2.97;;;2.30;99.90;;;;;;4995946;28;20061;-77
2024/01/16 03:32:36;;;;;;;9.70;3.22;;;2.40;99.90;;;;;;4997477;28;20102;-77
2024/01/16 03:35:02;;;;;;;7.35;3.00;;;2.40;99.90;;;;;;4997510;28;20054;-77
2024/01/16 03:37:28;;;;;;;11.10;3.33;;;2.40;99.90;;;;;;4997235;28;20428;-77
2024/01/16 03:39:54;;;;;;;8.77;3.28;;;2.50;99.90;;;;;;4997168;28;20106;-77
2024/01/16 03:42:20;;;;;;;12.68;3.33;;;2.60;99.90;;;;;;4979765;28;20034;-77
2024/01/16 03:44:46;;;;;;;12.82;3.08;;;2.60;99.90;;;;;;4979587;28;20408;-77
2024/01/16 03:47:12;;;;;;;9.98;3.55;;;2.60;99.90;;;;;;4995689;28;20050;-77
2024/01/16 03:49:38;;;;;;;9.15;3.55;;;2.60;99.90;;;;;;4996135;28;20409;-77
2024/01/16 03:52:04;;;;;;;9.25;4.00;;;2.60;99.90;;;;;;4995524;28;20030;-77
2024/01/16 03:54:30;;;;;;;8.90;3.83;;;2.60;99.90;;;;;;4996723;28;20023;-77
2024/01/16 03:56:56;;;;;;;9.43;3.55;;;2.60;99.90;;;;;;4995479;28;20364;-77
2024/01/16 03:59:21;;;;;;;12.15;4.05;;;2.60;99.90;;;;;;4996759;28;20029;-77
2024/01/16 04:01:48;;;;;;;10.93;3.90;;;2.60;99.90;;;;;;4996794;28;20443;-77
2024/01/16 04:04:14;;;;;;;12.32;3.85;;;2.50;99.90;;;;;;4979003;28;20022;-77
2024/01/16 04:06:40;;;;;;;24.30;4.75;;;2.60;99.90;;;;;;4996584;28;20145;-77
2024/01/16 04:09:08;;;;;;;12.07;3.67;;;2.60;99.90;;;;;;4996397;28;20484;-77
2024/01/16 04:11:34;;;;;;;7.57;3.28;;;2.60;99.90;;;;;;4996994;28;20018;-77
2024/01/16 04:13:59;;;;;;;6.80;3.08;;;2.60;99.90;;;;;;4995472;28;20093;-77
2024/01/16 04:16:25;;;;;;;10.18;2.50;;;2.60;99.90;;;;;;4979373;28;20121;-77
2024/01/16 04:18:51;;;;;;;7.60;2.15;;;2.50;99.90;;;;;;4996142;28;20314;-77
2024/01/16 04:21:16;;;;;;;10.52;1.70;;;2.50;99.90;;;;;;4996270;28;20026;-77
2024/01/16 04:23:42;;;;;;;13.73;2.53;;;2.50;99.90;;;;;;4978750;28;20027;-77
2024/01/16 04:26:08;;;;;;;11.38;3.95;;;2.50;99.90;;;;;;4994503;28;20054;-77
2024/01/16 04:28:34;;;;;;;5.63;1.92;;;2.40;99.90;;;;;;4995131;28;20030;-77
2024/01/16 04:31:01;;;;;;;5.80;1.98;;;2.40;99.90;;;;;;4995291;28;20031;-77
2024/01/16 04:33:27;;;;;;;14.65;2.50;;;2.40;99.90;;;;;;4979251;28;20053;-77
2024/01/16 04:35:53;;;;;;;6.55;2.40;;;2.50;99.90;;;;;;4996680;28;20410;-78
2024/01/16 04:38:19;;;;;;;7.50;2.92;;;2.50;99.90;;;;;;4978567;28;20069;-78
2024/01/16 04:40:44;;;;;;;7.65;2.10;;;2.60;99.90;;;;;;4978394;28;20023;-77
2024/01/16 04:43:10;;;;;;;9.65;2.10;;;2.60;99.90;;;;;;4995936;28;20027;-77
2024/01/16 04:45:36;;;;;;;8.23;2.40;;;2.70;99.90;;;;;;4994497;28;20034;-78
2024/01/16 04:48:02;;;;;;;9.63;2.63;;;2.80;99.90;;;;;;4995238;28;20080;-77
2024/01/16 04:50:31;;;;;;;7.03;2.10;;;2.90;99.90;;;;;;4996298;28;20398;-78
2024/01/16 04:52:59;;;;;;;8.43;2.70;;;2.90;99.90;;;;;;4994082;28;20022;-78
2024/01/16 04:55:26;;;;;;;7.53;2.03;;;2.90;99.90;;;;;;4995818;28;20034;-78
2024/01/16 04:57:52;;;;;;;9.45;2.30;;;2.90;99.90;;;;;;4993878;28;20046;-78
2024/01/16 05:00:18;;;;;;;8.40;2.30;;;2.90;99.90;;;;;;4994713;28;20018;-78
2024/01/16 05:02:44;;;;;;;6.00;1.98;;;2.90;99.90;;;;;;4994175;28;20065;-78
2024/01/16 05:05:09;;;;;;;8.75;1.92;;;2.90;99.90;;;;;;4994257;28;20054;-78
2024/01/16 05:07:35;;;;;;;8.32;2.00;;;2.90;99.90;;;;;;4977897;28;20038;-77
2024/01/16 05:10:01;;;;;;;8.50;1.80;;;2.90;99.90;;;;;;4993997;28;20441;-77
2024/01/16 05:12:27;;;;;;;8.25;2.17;;;2.90;99.90;;;;;;4978560;28;20360;-78
2024/01/16 05:14:53;;;;;;;11.07;2.08;;;2.90;99.90;;;;;;4993895;28;20031;-77
2024/01/16 05:17:18;;;;;;;8.85;2.55;;;2.90;99.90;;;;;;4994463;28;20041;-77
2024/01/16 05:19:44;;;;;;;9.55;2.42;;;2.80;99.90;;;;;;4993781;28;20026;-78
2024/01/16 05:22:10;;;;;;;11.23;2.90;;;2.90;99.90;;;;;;4993648;28;20104;-78
2024/01/16 05:24:36;;;;;;;7.28;2.80;;;2.90;99.90;;;;;;4994314;28;20023;-78
2024/01/16 05:27:04;;;;;;;11.80;3.60;;;2.90;99.90;;;;;;4995815;28;20065;-78
2024/01/16 05:29:30;;;;;;;9.07;3.53;;;2.80;99.90;;;;;;4995015;28;20544;-77
2024/01/16 05:31:56;;;;;;;7.68;2.85;;;2.80;99.90;;;;;;4996150;28;20030;-77
2024/01/16 05:34:22;;;;;;;12.00;3.90;;;2.80;99.90;;;;;;4995007;28;20345;-78
2024/01/16 05:36:48;;;;;;;9.45;3.47;;;2.80;99.90;;;;;;4995088;28;20026;-77
2024/01/16 05:39:13;;;;;;;6.30;2.63;;;2.80;99.90;;;;;;4995018;28;20130;-77
2024/01/16 05:41:39;;;;;;;5.28;2.55;;;2.80;99.90;;;;;;4994673;28;20449;-80
2024/01/16 05:44:05;;;;;;;8.70;2.25;;;2.80;99.90;;;;;;4994678;28;20027;-77
2024/01/16 05:46:32;;;;;;;9.43;2.17;;;2.80;99.90;;;;;;4993658;28;20132;-78
2024/01/16 05:48:58;;;;;;;8.73;2.03;;;2.80;99.90;;;;;;4995510;28;20520;-77
2024/01/16 05:51:25;;;;;;;9.85;1.90;;;2.80;99.90;;;;;;4997605;28;20034;-77
2024/01/16 05:53:51;;;;;;;4.95;1.67;;;2.70;99.90;;;;;;4993458;28;20036;-78
2024/01/16 05:56:16;;;;;;;9.18;1.50;;;2.70;99.90;;;;;;4993742;28;20022;-77
2024/01/16 05:58:42;;;;;;;5.20;1.08;;;2.70;99.90;;;;;;4993207;28;20486;-77
2024/01/16 06:01:08;;;;;;;6.35;1.38;;;2.70;99.90;;;;;;4993663;28;20035;-76
2024/01/16 06:03:33;;;;;;;5.95;0.80;;;2.70;99.90;;;;;;4993111;28;20049;-76
2024/01/16 06:05:59;;;;;;;9.65;1.45;;;2.70;99.90;;;;;;4993164;28;20038;-77
2024/01/16 06:08:25;;;;;;;5.07;1.25;;;2.80;99.90;;;;;;4994466;28;20034;-75
2024/01/16 06:10:51;;;;;;;12.50;1.10;;;2.80;99.90;;;;;;4992971;28;20030;-75
2024/01/16 06:13:18;;;;;;;9.27;0.80;;;2.90;99.90;;;;;;4994386;28;20042;-76
2024/01/16 06:15:44;;;;;;;7.82;1.00;;;2.90;99.90;;;;;;4992726;28;20088;-76
2024/01/16 06:18:10;;;;;;;6.50;0.93;;;3.00;99.90;;;;;;4994416;28;20448;-78
2024/01/16 06:20:35;;;;;;;11.68;1.15;;;2.90;99.90;;;;;;4992890;28;20385;-77
2024/01/16 06:23:01;;;;;;;9.10;1.30;;;2.90;99.90;;;;;;4992549;28;20022;-76
2024/01/16 06:25:27;;;;;;;7.90;1.75;;;2.90;99.90;;;;;;4976536;28;20027;-77
2024/01/16 06:27:52;;;;;;;7.07;0.98;;;3.00;99.90;;;;;;4992649;28;20052;-75
2024/01/16 06:30:18;;;;;;;6.05;1.08;;;3.00;99.90;;;;;;4992674;28;20030;-74
2024/01/16 06:32:44;;;;;;;6.53;0.85;;;3.00;99.90;;;;;;4993930;28;20026;-74
2024/01/16 06:35:11;;;;;;;6.18;0.98;;;3.00;99.90;;;;;;4992978;28;20037;-75
2024/01/16 06:37:37;;;;;;;9.18;1.35;;;3.00;99.90;;;;;;4993756;28;20117;-75
2024/01/16 06:40:04;;;;;;;3.20;0.60;;;3.00;99.90;;;;;;4992570;28;20449;-74
2024/01/16 06:42:30;;;;;;;6.53;1.45;;;3.00;99.90;;;;;;4993762;28;20425;-76
2024/01/16 06:44:55;;;;;;;9.15;0.90;;;3.00;99.90;;;;;;4993464;28;20041;-75
2024/01/16 06:47:21;;;;;;;6.10;1.13;;;2.90;99.90;;;;;;4992277;28;20033;-75
2024/01/16 06:49:47;;;;;;;8.45;1.15;;;3.00;99.90;;;;;;4992380;28;20030;-76
2024/01/16 06:52:12;;;;;;;5.68;1.20;;;3.00;99.90;;;;;;4993788;28;20077;-75
2024/01/16 06:54:38;;;;;;;6.90;1.10;;;3.00;99.90;;;;;;4992375;28;20034;-74
2024/01/16 06:57:04;;;;;;;6.85;1.00;;;2.90;99.90;;;;;;4992315;28;20031;-76
2024/01/16 06:59:30;;;;;;;7.45;0.80;;;2.90;99.90;;;;;;4992051;28;20027;-76
2024/01/16 07:01:55;;;;;;;8.88;1.00;;;2.80;99.90;;;;;;4993192;28;20025;-74
2024/01/16 07:04:21;;;;;;;9.75;1.48;;;2.90;99.90;;;;;;4991918;28;20030;-75
2024/01/16 07:06:47;;;;;;;7.50;1.00;;;3.00;99.90;;;;;;4993116;28;20023;-76
2024/01/16 07:09:13;;;;;;;10.20;1.42;;;3.00;99.90;;;;;;4992004;28;20031;-75
2024/01/16 07:11:42;;;;;;;11.50;1.60;;;3.00;99.90;;;;;;4992839;28;20346;-76
2024/01/16 07:14:10;;;;;;;10.65;1.75;;;3.00;99.90;;;;;;4992531;28;20028;-76
2024/01/16 07:16:36;;;;;;;7.82;1.70;;;3.00;99.90;;;;;;4993342;28;20031;-76
2024/01/16 07:19:02;;;;;;;5.97;1.30;;;3.10;99.90;;;;;;4992416;28;20080;-76
2024/01/16 07:21:28;;;;;;;7.82;1.30;;;3.10;99.90;;;;;;4993421;28;20027;-75
2024/01/16 07:23:54;;;;;;;9.20;1.40;;;3.20;99.90;;;;;;4992965;28;20053;-75
2024/01/16 07:26:20;;;;;;;9.55;1.63;;;3.20;99.90;;;;;;4991579;28;20512;-75
2024/01/16 07:28:47;;;;;;;8.88;1.75;;;3.20;99.90;;;;;;4991363;28;20042;-74
2024/01/16 07:31:14;;;;;;;9.13;1.73;;;3.20;99.90;;;;;;4991850;28;20023;-76
2024/01/16 07:33:39;;;;;;;5.13;1.50;;;3.20;99.90;;;;;;4992995;28;20032;-76
2024/01/16 07:36:07;;;;;;;8.45;1.90;;;3.20;99.90;;;;;;4992058;28;20364;-76
2024/01/16 07:38:33;;;;;;;9.38;2.25;;;3.20;99.90;;;;;;4992929;28;20405;-76
2024/01/16 07:40:59;;;;;;;10.68;2.40;;;3.10;99.90;;;;;;4992101;28;20034;-77
2024/01/16 07:43:25;;;;;;;8.90;1.95;;;3.00;99.90;;;;;;4976051;28;20089;-76
2024/01/16 07:45:51;;;;;;;11.48;3.50;;;3.10;99.90;;;;;;4991811;28;20033;-76
2024/01/16 07:48:16;;;;;;;10.98;2.75;;;3.10;99.90;;;;;;4991794;28;20089;-75
2024/01/16 07:50:42;;;;;;;9.80;3.20;;;3.20;99.90;;;;;;4991572;28;20026;-75
2024/01/16 07:53:08;;;;;;;12.60;3.90;;;3.20;99.90;;;;;;4991677;28;20365;-73
2024/01/16 07:55:34;;;;;;;11.25;4.65;;;3.30;99.90;;;;;;4992595;28;20033;-76
2024/01/16 07:57:59;;;;;;;9.63;4.10;;;3.20;99.90;;;;;;4991613;28;20034;-75
2024/01/16 08:00:27;;;;;;;6.68;4.15;;;3.20;99.90;;;;;;4991325;28;20022;-76
2024/01/16 08:02:53;;;;;;;15.88;4.97;;;3.20;99.90;;;;;;4995350;28;20053;-75
2024/01/16 08:05:21;;;;;;;13.18;5.03;;;3.20;99.90;;;;;;4996683;28;20053;-79
2024/01/16 08:07:47;;;;;;;15.38;6.03;;;3.20;99.90;;;;;;4980613;28;20050;-77
2024/01/16 08:10:13;;;;;;;13.63;5.82;;;3.20;99.90;;;;;;4996215;28;20417;-76
2024/01/16 08:12:38;;;;;;;10.80;5.80;;;3.20;99.90;;;;;;4979726;28;20134;-75
2024/01/16 08:15:07;;;;;;;13.88;6.03;;;3.20;99.90;;;;;;4979152;28;20492;-78
2024/01/16 08:17:33;;;;;;;14.82;6.20;;;3.20;99.90;;;;;;4994936;28;20041;-78
2024/01/16 08:19:59;;;;;;;13.50;5.72;;;3.30;99.90;;;;;;4980047;28;20125;-77
2024/01/16 08:22:25;;;;;;;14.63;5.80;;;3.30;99.90;;;;;;4997663;28;20416;-77
2024/01/16 08:24:51;;;;;;;14.07;5.20;;;3.30;99.90;;;;;;4997512;28;20109;-77
2024/01/16 08:27:16;;;;;;;18.20;6.60;;;3.30;99.90;;;;;;4981674;28;20066;-77
2024/01/16 08:29:43;;;;;;;13.38;5.70;;;3.40;99.90;;;;;;4997612;28;20023;-77
2024/01/16 08:32:08;;;;;;;16.30;6.20;;;3.40;99.90;;;;;;4996193;28;20053;-76
2024/01/16 08:34:34;;;;;;;15.38;6.60;;;3.40;99.90;;;;;;4979203;28;20030;-77
2024/01/16 08:37:00;;;;;;;12.10;5.20;;;3.30;99.90;;;;;;4994999;28;20449;-77
2024/01/16 08:39:27;;;;;;;20.98;6.40;;;3.40;99.90;;;;;;4979009;28;20034;-78
2024/01/16 08:41:54;;;;;;;15.15;5.70;;;3.40;99.90;;;;;;4994897;28;20022;-77
2024/01/16 08:44:19;;;;;;;15.48;5.80;;;3.40;99.90;;;;;;4994652;28;20034;-77
2024/01/16 08:46:46;;;;;;;16.15;4.93;;;3.40;99.90;;;;;;4994641;28;20026;-78
2024/01/16 08:49:13;;;;;;;15.82;4.75;;;3.40;99.90;;;;;;4995657;28;20157;-76
2024/01/16 08:51:41;;;;;;;11.45;4.60;;;3.40;99.90;;;;;;4995653;28;20026;-78
2024/01/16 08:54:07;;;;;;;14.73;4.78;;;3.40;99.90;;;;;;4978894;28;20039;-77
2024/01/16 08:56:32;;;;;;;14.82;4.45;;;3.40;99.90;;;;;;4997322;28;20049;-76
2024/01/16 08:58:58;;;;;;;10.65;4.15;;;3.40;99.90;;;;;;4994626;28;20402;-78
2024/01/16 09:01:27;;;;;;;13.60;4.55;;;3.40;99.90;;;;;;4978023;28;20033;-79
2024/01/16 09:03:53;;;;;;;14.20;3.65;;;3.40;99.90;;;;;;4995441;28;20049;-78
2024/01/16 09:06:18;;;;;;;13.75;4.50;;;3.40;99.90;;;;;;4995997;28;20038;-79
2024/01/16 09:08:44;;;;;;;9.10;3.42;;;3.40;99.90;;;;;;4993960;28;20465;-78
2024/01/16 09:11:11;;;;;;;14.30;3.78;;;3.40;99.90;;;;;;4977400;28;20136;-78
2024/01/16 09:13:37;;;;;;;13.38;3.88;;;3.40;99.90;;;;;;4992543;28;20031;-77
2024/01/16 09:16:04;;;;;;;12.38;3.88;;;3.50;99.90;;;;;;4993869;28;20046;-78
2024/01/16 09:18:30;;;;;;;13.88;2.97;;;3.40;99.90;;;;;;4993235;28;20121;-78
2024/01/16 09:20:56;;;;;;;15.40;3.80;;;3.40;99.90;;;;;;4995414;28;20058;-77
2024/01/16 09:23:22;;;;;;;16.33;3.92;;;3.40;99.90;;;;;;4977374;28;20121;-77
2024/01/16 09:25:48;;;;;;;10.55;3.20;;;3.40;99.90;;;;;;4993290;28;20105;-78
2024/01/16 09:28:14;;;;;;;10.95;3.35;;;3.40;99.90;;;;;;4977390;28;20077;-77
2024/01/16 09:30:44;;;;;;;10.05;3.00;;;3.40;99.90;;;;;;4995178;28;20385;-76
2024/01/16 09:33:10;;;;;;;13.27;3.10;;;3.30;99.90;;;;;;4994410;28;20027;-77
2024/01/16 09:35:36;;;;;;;8.82;2.85;;;3.30;99.90;;;;;;4994922;28;20026;-77
2024/01/16 09:38:04;;;;;;;10.13;3.13;;;3.30;99.90;;;;;;4977482;28;20129;-77
2024/01/16 09:40:30;;;;;;;14.25;3.28;;;3.30;99.90;;;;;;4977833;28;20026;-78
2024/01/16 09:42:56;;;;;;;10.75;3.25;;;3.30;99.90;;;;;;4976599;28;20395;-77
2024/01/16 09:45:24;;;;;;;11.55;2.75;;;3.30;99.90;;;;;;4977334;28;20030;-77
2024/01/16 09:47:51;;;;;;;11.95;3.08;;;3.30;99.90;;;;;;4976943;28;20033;-77
2024/01/16 09:50:18;;;;;;;11.52;3.08;;;3.40;99.90;;;;;;4993219;28;20032;-77
2024/01/16 09:52:46;;;;;;;10.77;3.17;;;3.40;99.90;;;;;;4992916;28;20022;-77
2024/01/16 09:55:13;;;;;;;11.13;2.80;;;3.40;99.90;;;;;;4976782;28;20425;-76
2024/01/16 09:57:40;;;;;;;12.68;3.65;;;3.40;99.90;;;;;;4992716;28;20057;-77
2024/01/16 10:00:14;;;;;;;8.43;2.85;;;3.30;99.90;;;;;;4992853;28;20041;-77
2024/01/16 10:02:40;;;;;;;9.63;2.50;;;3.30;99.90;;;;;;4992957;28;20487;-77
2024/01/16 10:05:10;;;;;;;12.95;2.70;;;3.20;99.90;;;;;;4993446;28;20389;-77
2024/01/16 10:07:40;;;;;;;6.82;2.38;;;3.10;99.90;;;;;;4992890;28;20122;-77
2024/01/16 10:10:10;;;;;;;7.05;2.40;;;3.00;99.90;;;;;;4992582;28;20026;-77
2024/01/16 10:12:38;;;;;;;13.98;2.85;;;3.10;99.90;;;;;;4992599;28;20033;-77
2024/01/16 10:15:07;;;;;;;8.43;2.55;;;3.20;99.90;;;;;;4992595;28;20026;-76
2024/01/16 10:17:40;;;;;;;8.02;2.10;;;3.30;99.90;;;;;;4993373;28;20504;-77
2024/01/16 10:20:13;;;;;;;11.63;2.95;;;3.30;99.90;;;;;;4992987;28;20027;-77
2024/01/16 10:22:39;;;;;;;10.77;2.65;;;3.30;99.90;;;;;;4977056;28;20125;-76
2024/01/16 10:25:07;;;;;;;8.82;3.10;;;3.30;99.90;;;;;;4992236;28;20028;-77
2024/01/16 10:27:36;;;;;;;8.88;2.63;;;3.30;99.90;;;;;;4991805;28;20096;-77
2024/01/16 10:30:04;;;;;;;6.50;2.75;;;3.30;99.90;;;;;;4992303;28;20038;-79
2024/01/16 10:32:40;;;;;;;12.52;2.50;;;3.40;99.90;;;;;;4996665;28;20018;-79
2024/01/16 10:35:13;;;;;;;10.20;2.20;;;3.40;99.90;;;;;;4992972;28;20022;-78
2024/01/16 10:37:54;;;;;;;14.52;2.75;;;3.40;99.90;;;;;;4992289;28;20073;-78
2024/01/16 10:40:27;;;;;;;9.20;2.30;;;3.40;99.90;;;;;;4993068;28;20097;-79
2024/01/16 10:42:59;;;;;;;9.47;2.93;;;3.50;99.90;;;;;;4993413;28;20022;-77
2024/01/16 10:45:26;;;;;;;11.25;3.00;;;3.50;99.90;;;;;;4992995;28;20029;-78
2024/01/16 10:48:02;;;;;;;8.35;2.42;;;3.50;99.90;;;;;;4991974;28;20385;-78
2024/01/16 10:50:28;;;;;;;10.30;2.50;;;3.50;99.90;;;;;;4993044;28;20018;-77
2024/01/16 10:52:54;;;;;;;9.40;2.65;;;3.60;99.90;;;;;;4976296;28;20173;-79
2024/01/16 10:55:22;;;;;;;7.55;1.95;;;3.60;99.90;;;;;;4994277;28;20421;-77
2024/01/16 10:57:51;;;;;;;12.75;2.33;;;3.70;99.90;;;;;;4993455;28;20430;-79
2024/01/16 11:00:27;;;;;;;8.55;2.17;;;3.70;99.90;;;;;;4980728;28;20076;-78
2024/01/16 11:03:24;;;;;;;15.38;3.22;;;3.90;99.90;;;;;;4998462;28;20030;-78
2024/01/16 11:05:50;;;;;;;7.60;2.30;;;3.80;99.90;;;;;;4999948;28;20023;-79
2024/01/16 11:08:17;;;;;;;9.80;3.17;;;3.80;99.90;;;;;;4978182;28;20037;-79
2024/01/16 11:10:52;;;;;;;7.97;2.22;;;3.80;99.90;;;;;;4993957;28;20109;-78
2024/01/16 11:13:19;;;;;;;7.93;1.98;;;3.80;99.90;;;;;;4993496;28;20052;-79
2024/01/16 11:15:48;;;;;;;5.32;2.38;;;3.90;99.90;;;;;;4975827;28;20054;-80
2024/01/16 11:18:15;;;;;;;9.18;1.90;;;3.90;99.90;;;;;;4992167;28;20038;-79
2024/01/16 11:20:42;;;;;;;5.60;1.80;;;3.90;99.90;;;;;;4993278;28;20050;-80
2024/01/16 11:23:10;;;;;;;8.60;1.85;;;3.90;99.90;;;;;;4993121;28;20038;-80
2024/01/16 11:25:36;;;;;;;7.30;2.70;;;4.00;99.90;;;;;;4992227;28;20042;-78
2024/01/16 11:28:31;;;;;;;5.97;1.52;;;4.00;99.90;;;;;;4992050;28;20061;-80
2024/01/16 11:30:57;;;;;;;9.18;2.17;;;4.10;99.90;;;;;;4992119;28;20364;-79
2024/01/16 11:33:31;;;;;;;6.40;1.88;;;4.20;99.90;;;;;;4993322;28;20034;-76
2024/01/16 11:35:57;;;;;;;8.57;2.30;;;4.20;99.90;;;;;;4992553;28;20112;-76
2024/01/16 11:38:26;;;;;;;8.00;2.00;;;4.40;99.90;;;;;;4996988;28;20117;-78
2024/01/16 11:40:54;;;;;;;11.43;2.78;;;4.40;99.90;;;;;;4995988;28;20022;-79
2024/01/16 11:43:31;;;;;;;4.57;1.58;;;4.30;99.90;;;;;;4995181;28;20480;-78
2024/01/16 11:45:58;;;;;;;6.95;2.00;;;4.40;99.90;;;;;;4995954;28;20025;-78
2024/01/16 11:48:24;;;;;;;4.93;1.98;;;4.50;99.90;;;;;;4995352;28;20050;-78
2024/01/16 11:50:50;;;;;;;6.05;1.80;;;4.60;99.90;;;;;;4996495;28;20027;-77
2024/01/16 11:53:37;;;;;;;8.75;2.30;;;4.70;99.90;;;;;;4995816;28;20022;-78
2024/01/16 11:56:09;;;;;;;10.18;2.45;;;4.70;99.90;;;;;;4995865;28;20092;-79
2024/01/16 11:59:08;;;;;;;10.10;2.05;;;4.70;99.90;;;;;;4995152;28;20030;-76
2024/01/16 12:01:35;;;;;;;6.80;2.40;;;4.80;99.90;;;;;;4992514;28;20039;-76
2024/01/16 12:04:05;;;;;;;12.70;2.50;;;4.70;99.90;;;;;;4996454;28;20094;-77
2024/01/16 12:06:31;;;;;;;7.20;2.05;;;4.70;99.90;;;;;;4995490;28;20018;-77
2024/01/16 12:09:13;;;;;;;9.93;2.63;;;4.70;99.90;;;;;;4995019;28;20033;-76
2024/01/16 12:11:39;;;;;;;10.07;2.97;;;4.70;99.90;;;;;;4995090;28;20022;-77
2024/01/16 12:14:08;;;;;;;6.07;2.15;;;4.80;99.90;;;;;;4978433;28;20109;-78
2024/01/16 12:16:34;;;;;;;9.65;2.10;;;4.80;99.90;;;;;;4994808;28;20030;-75
2024/01/16 12:19:10;;;;;;;7.82;2.33;;;4.80;99.90;;;;;;4978651;28;20038;-77
2024/01/16 12:21:40;;;;;;;11.38;2.42;;;4.70;99.90;;;;;;4994685;28;20030;-78
2024/01/16 12:24:06;;;;;;;10.68;2.67;;;4.70;99.90;;;;;;4995104;28;20049;-78
2024/01/16 12:26:32;;;;;;;7.70;1.85;;;4.60;99.90;;;;;;4995874;28;20035;-80
2024/01/16 12:28:58;;;;;;;8.05;2.67;;;4.60;99.90;;;;;;4979095;28;20112;-79
2024/01/16 12:31:25;;;;;;;5.45;2.33;;;4.70;99.90;;;;;;4994502;28;20030;-79
2024/01/16 12:33:51;;;;;;;7.05;2.42;;;4.60;99.90;;;;;;4978591;28;20117;-80
2024/01/16 12:36:17;;;;;;;14.77;2.92;;;4.70;99.90;;;;;;4994315;28;20029;-79
2024/01/16 12:38:43;;;;;;;9.20;2.38;;;4.70;99.90;;;;;;4995761;28;20034;-78
2024/01/16 12:41:11;;;;;;;10.32;2.60;;;4.70;99.90;;;;;;4994536;28;20349;-77
2024/01/16 12:43:37;;;;;;;7.55;2.65;;;4.90;99.90;;;;;;4995802;28;20029;-78
2024/01/16 12:46:03;;;;;;;8.88;2.88;;;5.00;99.90;;;;;;4994555;28;20027;-78
2024/01/16 12:48:29;;;;;;;6.90;1.92;;;4.90;99.90;;;;;;4994526;28;20032;-76
2024/01/16 12:51:05;;;;;;;10.32;3.40;;;5.00;99.90;;;;;;4994240;28;20068;-77